createdAt,value
2019-04-21T00:03:18.138Z,99587.20
2019-04-21T00:06:48.204Z,99593.54
2019-04-21T00:10:06.312Z,99588.04
2019-04-21T00:13:12.372Z,99583.69
2019-04-21T00:16:17.183Z,99580.59
2019-04-21T00:19:35.701Z,99577.52
2019-04-21T00:23:09.470Z,99571.64
2019-04-21T00:26:25.373Z,99576.06
2019-04-21T00:29:51.792Z,99574.95
2019-04-21T00:32:50.266Z,99568.18
2019-04-21T00:35:59.839Z,99567.58
2019-04-21T00:39:36.143Z,99565.98
2019-04-21T00:42:43.209Z,99561.46
2019-04-21T00:45:51.802Z,99559.73
2019-04-21T00:49:10.540Z,99559.33
2019-04-21T00:56:04.539Z,99554.66
2019-04-21T00:59:16.388Z,99559.47
2019-04-21T01:02:29.715Z,99547.75
2019-04-21T01:05:49.821Z,99556.15
2019-04-21T01:08:59.439Z,99545.42
2019-04-21T01:12:19.356Z,99543.84
2019-04-21T01:15:38.535Z,99550.36
2019-04-21T01:18:51.929Z,99548.35
2019-04-21T01:21:42.656Z,99540.53
2019-04-21T01:25:04.546Z,99531.42
2019-04-21T01:28:32.816Z,99531.21
2019-04-21T01:31:41.630Z,99549.22
2019-04-21T01:35:02.665Z,99539.01
2019-04-21T01:38:27.315Z,99535.05
2019-04-21T01:41:41.301Z,99540.64
2019-04-21T01:44:56.407Z,99534.98
2019-04-21T01:48:03.583Z,99536.37
2019-04-21T01:51:18.733Z,99538.50
2019-04-21T01:55:00.390Z,99531.95
2019-04-21T01:58:11.532Z,99527.73
2019-04-21T02:01:34.608Z,99529.73
2019-04-21T02:04:55.793Z,99526.21
2019-04-21T02:08:01.072Z,99527.32
2019-04-21T02:11:23.114Z,99526.64
2019-04-21T02:14:41.043Z,99519.02
2019-04-21T02:17:53.736Z,99516.72
2019-04-21T02:20:52.872Z,99509.56
2019-04-21T02:24:31.265Z,99516.31
2019-04-21T02:27:36.465Z,99512.23
2019-04-21T02:31:18.673Z,99512.35
2019-04-21T02:34:13.402Z,99504.91
2019-04-21T02:37:44.858Z,99504.20
2019-04-21T02:40:51.506Z,99501.18
2019-04-21T02:47:27.384Z,99504.11
2019-04-21T02:54:24.624Z,99500.19
2019-04-21T02:57:09.606Z,99490.68
2019-04-21T03:03:55.007Z,99480.59
2019-04-21T03:07:24.346Z,99475.70
2019-04-21T03:13:57.241Z,99470.89
2019-04-21T03:20:44.461Z,99459.42
2019-04-21T03:24:15.296Z,99458.77
2019-04-21T03:27:17.198Z,99454.73
2019-04-21T03:30:42.245Z,99456.72
2019-04-21T03:37:16.912Z,99443.47
2019-04-21T03:43:29.970Z,99441.55
2019-04-21T03:50:04.623Z,99434.41
2019-04-21T04:00:31.847Z,99429.48
2019-04-21T04:06:56.569Z,99426.48
2019-04-21T04:10:08.405Z,99432.02
2019-04-21T04:13:26.549Z,99423.31
2019-04-21T04:16:42.580Z,99424.20
2019-04-21T04:23:09.804Z,99420.77
2019-04-21T04:26:31.617Z,99417.17
2019-04-21T04:29:39.666Z,99420.30
2019-04-21T04:32:46.839Z,99419.31
2019-04-21T04:39:48.687Z,99414.02
2019-04-21T04:43:11.930Z,99415.84
2019-04-21T04:46:17.734Z,99412.66
2019-04-21T04:49:43.498Z,99412.47
2019-04-21T04:59:32.556Z,99413.94
2019-04-21T05:02:40.251Z,99408.95
2019-04-21T05:09:39.370Z,99408.93
2019-04-21T05:23:25.701Z,99411.20
2019-04-21T05:26:32.970Z,99417.17
2019-04-21T05:29:58.651Z,99416.88
2019-04-21T05:33:36.102Z,99412.38
2019-04-21T05:37:15.467Z,99412.25
2019-04-21T05:40:28.737Z,99409.39
2019-04-21T05:43:54.528Z,99409.30
2019-04-21T05:47:14.184Z,99416.42
2019-04-21T05:50:19.102Z,99406.27
2019-04-21T05:53:39.399Z,99414.83
2019-04-21T05:56:51.028Z,99412.64
2019-04-21T06:00:09.914Z,99405.09
2019-04-21T06:03:23.134Z,99402.00
2019-04-21T06:06:39.654Z,99401.33
2019-04-21T06:10:07.233Z,99395.97
2019-04-21T06:13:19.906Z,99399.98
2019-04-21T06:16:28.710Z,99398.82
2019-04-21T06:23:00.232Z,99395.47
2019-04-21T06:29:29.831Z,99389.36
2019-04-21T06:36:39.019Z,99387.45
2019-04-21T06:39:54.194Z,99371.45
2019-04-21T06:43:08.166Z,99372.94
2019-04-21T06:46:17.137Z,99365.53
2019-04-21T06:49:28.093Z,99360.22
2019-04-21T06:52:51.945Z,99363.20
2019-04-21T06:55:59.983Z,99357.72
2019-04-21T06:59:09.711Z,99356.42
2019-04-21T07:05:48.756Z,99358.56
2019-04-21T07:09:13.975Z,99352.73
2019-04-21T07:12:05.766Z,99353.48
2019-04-21T07:15:30.551Z,99356.48
2019-04-21T07:18:58.630Z,99342.19
2019-04-21T07:22:03.096Z,99339.13
2019-04-21T07:25:28.169Z,99336.13
2019-04-21T07:28:31.753Z,99325.58
2019-04-21T07:31:55.539Z,99329.00
2019-04-21T07:35:03.895Z,99326.90
2019-04-21T07:38:16.546Z,99324.07
2019-04-21T07:41:24.982Z,99321.14
2019-04-21T07:44:39.466Z,99319.56
2019-04-21T07:48:08.335Z,99317.08
2019-04-21T07:51:51.538Z,99305.56
2019-04-21T07:58:20.982Z,99302.22
2019-04-21T08:01:36.967Z,99304.01
2019-04-21T08:08:01.573Z,99295.23
2019-04-21T08:11:20.813Z,99298.20
2019-04-21T08:15:03.204Z,99289.25
2019-04-21T08:17:54.713Z,99283.94
2019-04-21T08:21:05.886Z,99280.39
2019-04-21T08:24:27.499Z,99277.16
2019-04-21T08:27:47.747Z,99274.85
2019-04-21T08:30:54.228Z,99276.39
2019-04-21T08:34:14.130Z,99270.77
2019-04-21T08:37:24.151Z,99270.69
2019-04-21T08:40:40.870Z,99263.78
2019-04-21T08:43:58.979Z,99262.23
2019-04-21T08:47:12.583Z,99263.34
2019-04-21T08:50:28.026Z,99261.68
2019-04-21T08:53:57.102Z,99263.86
2019-04-21T08:57:24.247Z,99262.86
2019-04-21T09:00:51.168Z,99259.39
2019-04-21T09:04:18.694Z,99266.31
2019-04-21T09:07:25.859Z,99249.30
2019-04-21T09:10:35.471Z,99253.98
2019-04-21T09:13:48.934Z,99241.23
2019-04-21T09:17:01.682Z,99237.16
2019-04-21T09:20:42.757Z,99232.00
2019-04-21T09:23:32.912Z,99231.72
2019-04-21T09:26:54.217Z,99217.92
2019-04-21T09:29:54.053Z,99224.23
2019-04-21T09:33:05.549Z,99210.48
2019-04-21T09:36:22.054Z,99209.81
2019-04-21T09:39:41.836Z,99206.82
2019-04-21T09:42:56.820Z,99191.42
2019-04-21T09:46:06.170Z,99196.28
2019-04-21T09:49:23.970Z,99191.20
2019-04-21T09:52:41.733Z,99188.45
2019-04-21T09:55:56.712Z,99184.81
2019-04-21T09:59:14.843Z,99178.10
2019-04-21T10:02:36.568Z,99178.76
2019-04-21T10:05:38.063Z,99172.22
2019-04-21T10:09:00.947Z,99163.17
2019-04-21T10:12:07.587Z,99165.09
2019-04-21T10:15:23.640Z,99147.80
2019-04-21T10:18:36.518Z,99150.86
2019-04-21T10:21:52.028Z,99145.17
2019-04-21T10:25:06.736Z,99147.09
2019-04-21T10:28:21.155Z,99137.90
2019-04-21T10:31:36.800Z,99136.58
2019-04-21T10:34:50.301Z,99130.48
2019-04-21T10:38:17.027Z,99128.60
2019-04-21T10:41:19.358Z,99120.73
2019-04-21T10:44:32.780Z,99113.21
2019-04-21T10:47:47.207Z,99112.45
2019-04-21T10:51:01.100Z,99104.59
2019-04-21T10:54:15.841Z,99116.33
2019-04-21T10:57:30.575Z,99106.36
2019-04-21T11:00:46.113Z,99087.02
2019-04-21T11:04:19.958Z,99092.84
2019-04-21T11:08:03.703Z,99092.02
2019-04-21T11:11:03.839Z,99079.02
2019-04-21T11:14:17.893Z,99070.45
2019-04-21T11:17:32.331Z,99070.45
2019-04-21T11:20:46.914Z,99069.27
2019-04-21T11:24:01.736Z,99062.06
2019-04-21T11:27:16.986Z,99059.50
2019-04-21T11:30:31.724Z,99049.30
2019-04-21T11:33:45.485Z,99054.66
2019-04-21T11:36:59.155Z,99046.57
2019-04-21T11:40:16.726Z,99035.14
2019-04-21T11:43:28.904Z,99036.88
2019-04-21T11:46:42.699Z,99026.56
2019-04-21T11:49:57.066Z,99023.44
2019-04-21T11:53:10.946Z,99023.39
2019-04-21T11:56:25.167Z,99006.59
2019-04-21T11:59:39.651Z,99001.42
2019-04-21T12:02:53.440Z,99000.41
2019-04-21T12:06:06.895Z,98994.02
2019-04-21T12:09:21.003Z,98990.77
2019-04-21T12:16:30.829Z,98985.76
2019-04-21T12:19:44.774Z,98982.09
2019-04-21T12:23:00.398Z,98971.11
2019-04-21T12:26:14.110Z,98971.02
2019-04-21T12:29:29.040Z,98962.31
2019-04-21T12:32:56.263Z,98961.44
2019-04-21T12:36:09.843Z,98952.74
2019-04-21T12:39:24.980Z,98951.42
2019-04-21T12:42:40.391Z,98953.03
2019-04-21T12:45:54.138Z,98941.34
2019-04-21T12:49:08.090Z,98939.14
2019-04-21T12:52:21.887Z,98933.44
2019-04-21T12:55:40.318Z,98923.73
2019-04-21T12:58:51.369Z,98919.33
2019-04-21T13:02:05.081Z,98912.63
2019-04-21T13:05:19.956Z,98918.63
2019-04-21T13:08:45.656Z,98905.11
2019-04-21T13:11:49.257Z,98905.48
2019-04-21T13:15:04.275Z,98904.72
2019-04-21T13:18:18.456Z,98892.81
2019-04-21T13:21:32.101Z,98884.01
2019-04-21T13:24:45.584Z,98877.83
2019-04-21T13:27:59.226Z,98873.39
2019-04-21T13:31:14.054Z,98872.42
2019-04-21T13:34:28.344Z,98875.50
2019-04-21T13:37:43.365Z,98859.22
2019-04-21T13:41:36.693Z,98866.25
2019-04-21T13:44:39.147Z,98869.66
2019-04-21T13:47:52.822Z,98861.05
2019-04-21T13:51:07.130Z,98853.58
2019-04-21T13:54:21.927Z,98846.92
2019-04-21T13:57:36.560Z,98836.78
2019-04-21T14:00:51.075Z,98833.23
2019-04-21T14:04:07.243Z,98833.63
2019-04-21T14:07:20.958Z,98829.27
2019-04-21T14:10:35.586Z,98825.74
2019-04-21T14:13:50.397Z,98823.40
2019-04-21T14:17:05.548Z,98816.17
2019-04-21T14:20:21.483Z,98812.40
2019-04-21T14:23:40.586Z,98808.34
2019-04-21T14:26:52.211Z,98793.08
2019-04-21T14:30:08.350Z,98794.90
2019-04-21T14:33:23.519Z,98803.27
2019-04-21T14:36:38.875Z,98793.55
2019-04-21T14:39:59.900Z,98796.09
2019-04-21T14:43:08.149Z,98792.95
2019-04-21T14:46:35.733Z,98791.52
2019-04-21T14:50:17.983Z,98781.55
2019-04-21T14:53:45.594Z,98777.16
2019-04-21T14:57:00.825Z,98776.95
2019-04-21T15:00:15.534Z,98767.67
2019-04-21T15:03:29.985Z,98771.69
2019-04-21T15:06:45.299Z,98769.80
2019-04-21T15:10:07.907Z,98759.16
2019-04-21T15:13:14.776Z,98762.68
2019-04-21T15:16:29.074Z,98760.20
2019-04-21T15:19:49.610Z,98750.23
2019-04-21T15:22:59.987Z,98750.15
2019-04-21T15:26:14.352Z,98745.75
2019-04-21T15:29:28.939Z,98749.32
2019-04-21T15:32:42.747Z,98749.03
2019-04-21T15:35:57.470Z,98739.35
2019-04-21T15:39:11.902Z,98738.45
2019-04-21T15:42:26.354Z,98737.61
2019-04-21T15:45:39.911Z,98740.62
2019-04-21T15:48:55.041Z,98734.47
2019-04-21T15:52:09.767Z,98728.31
2019-04-21T15:55:55.102Z,98723.89
2019-04-21T15:59:34.547Z,98714.17
2019-04-21T16:02:48.631Z,98716.42
2019-04-21T16:06:03.329Z,98699.69
2019-04-21T16:09:21.423Z,98702.75
2019-04-21T16:12:33.909Z,98702.29
2019-04-21T16:15:48.459Z,98707.09
2019-04-21T16:19:02.258Z,98703.95
2019-04-21T16:22:16.769Z,98694.14
2019-04-21T16:25:30.646Z,98698.53
2019-04-21T16:28:44.941Z,98690.44
2019-04-21T16:31:59.676Z,98685.14
2019-04-21T16:35:14.977Z,98683.89
2019-04-21T16:38:29.520Z,98683.89
2019-04-21T16:41:44.538Z,98675.01
2019-04-21T16:44:58.896Z,98675.01
2019-04-21T16:48:12.969Z,98673.56
2019-04-21T16:51:28.373Z,98666.50
2019-04-21T16:54:44.116Z,98665.70
2019-04-21T16:58:23.115Z,98665.70
2019-04-21T17:01:34.199Z,98662.21
2019-04-21T17:04:48.583Z,98662.21
2019-04-21T17:08:02.277Z,98652.66
2019-04-21T17:11:21.611Z,98651.67
2019-04-21T17:14:51.272Z,98651.87
2019-04-21T17:18:06.163Z,98652.63
2019-04-21T17:21:03.737Z,98651.50
2019-04-21T17:24:18.211Z,98657.33
2019-04-21T17:27:33.377Z,98651.66
2019-04-21T17:30:48.459Z,98650.22
2019-04-21T17:34:10.270Z,98649.33
2019-04-21T17:37:21.163Z,98653.93
2019-04-21T17:40:33.921Z,98652.57
2019-04-21T17:43:47.873Z,98652.08
2019-04-21T17:47:05.674Z,98654.10
2019-04-21T17:50:29.371Z,98647.30
2019-04-21T17:53:53.784Z,98651.19
2019-04-21T17:57:26.645Z,98659.76
2019-04-21T18:01:05.537Z,98668.16
2019-04-21T18:04:03.625Z,98656.83
2019-04-21T18:07:17.247Z,98660.41
2019-04-21T18:10:37.489Z,98662.83
2019-04-21T18:13:34.653Z,98669.73
2019-04-21T18:16:50.248Z,98669.55
2019-04-21T18:20:06.014Z,98677.33
2019-04-21T18:23:52.071Z,98673.00
2019-04-21T18:27:03.569Z,98681.53
2019-04-21T18:30:58.374Z,98686.74
2019-04-21T18:34:33.878Z,98685.56
2019-04-21T18:38:04.467Z,98682.63
2019-04-21T18:41:09.960Z,98687.70
2019-04-21T18:45:22.671Z,98686.05
2019-04-21T18:48:27.378Z,98691.75
2019-04-21T18:51:59.658Z,98687.22
2019-04-21T18:55:18.011Z,98693.45
2019-04-21T18:58:24.179Z,98688.48
2019-04-21T19:01:39.990Z,98695.84
2019-04-21T19:04:59.937Z,98694.95
2019-04-21T19:08:25.458Z,98696.92
2019-04-21T19:11:43.344Z,98702.77
2019-04-21T19:14:56.276Z,98700.23
2019-04-21T19:18:34.024Z,98710.75
2019-04-21T19:21:24.501Z,98712.41
2019-04-21T19:24:48.567Z,98720.99
2019-04-21T19:27:59.020Z,98715.62
2019-04-21T19:31:28.287Z,98716.13
2019-04-21T19:34:22.485Z,98721.02
2019-04-21T19:37:38.956Z,98715.98
2019-04-21T19:40:56.530Z,98715.73
2019-04-21T19:44:20.537Z,98716.69
2019-04-21T19:47:43.325Z,98716.77
2019-04-21T19:50:50.259Z,98714.41
2019-04-21T19:53:56.124Z,98720.35
2019-04-21T19:57:04.809Z,98717.36
2019-04-21T20:00:19.284Z,98710.53
2019-04-21T20:03:34.639Z,98711.52
2019-04-21T20:07:01.046Z,98708.23
2019-04-21T20:10:26.952Z,98709.61
2019-04-21T20:13:59.790Z,98707.30
2019-04-21T20:16:50.334Z,98699.02
2019-04-21T20:19:52.052Z,98704.00
2019-04-21T20:23:13.136Z,98700.70
2019-04-21T20:26:33.122Z,98701.93
2019-04-21T20:29:57.896Z,98705.56
2019-04-21T20:33:38.205Z,98704.98
2019-04-21T20:36:26.187Z,98694.05
2019-04-21T20:39:29.408Z,98695.28
2019-04-21T20:42:52.412Z,98701.21
2019-04-21T20:46:12.358Z,98702.44
2019-04-21T20:49:23.085Z,98698.86
2019-04-21T20:52:47.673Z,98698.52
2019-04-21T20:55:52.796Z,98696.56
2019-04-21T20:59:12.161Z,98695.27
2019-04-21T21:02:26.535Z,98692.08
2019-04-21T21:05:42.581Z,98684.67
2019-04-21T21:09:01.445Z,98690.74
2019-04-21T21:12:33.760Z,98686.55
2019-04-21T21:16:53.388Z,98689.01
2019-04-21T21:20:08.922Z,98688.62
2019-04-21T21:23:12.834Z,98690.74
2019-04-21T21:26:38.139Z,98685.92
2019-04-21T21:29:50.218Z,98680.13
2019-04-21T21:33:11.429Z,98681.86
2019-04-21T21:36:19.239Z,98680.61
2019-04-21T21:39:48.786Z,98680.33
2019-04-21T21:42:40.046Z,98681.34
2019-04-21T21:45:55.623Z,98680.00
2019-04-21T21:49:23.711Z,98681.16
2019-04-21T21:52:36.678Z,98685.81
2019-04-21T21:55:38.581Z,98681.38
2019-04-21T21:58:53.878Z,98683.30
2019-04-21T22:02:09.467Z,98679.64
2019-04-21T22:05:27.299Z,98679.30
2019-04-21T22:08:40.564Z,98676.63
2019-04-21T22:11:57.848Z,98670.24
2019-04-21T22:15:17.345Z,98665.55
2019-04-21T22:18:39.525Z,98661.60
2019-04-21T22:21:59.519Z,98661.86
2019-04-21T22:25:09.082Z,98662.84
2019-04-21T22:28:13.473Z,98664.52
2019-04-21T22:31:31.874Z,98655.05
2019-04-21T22:34:50.244Z,98661.31
2019-04-21T22:38:15.213Z,98658.00
2019-04-21T22:41:24.222Z,98658.64
2019-04-21T22:44:30.202Z,98662.77
2019-04-21T22:47:45.147Z,98656.86
2019-04-21T22:51:00.581Z,98658.52
2019-04-21T22:54:20.810Z,98659.69
2019-04-21T22:57:37.824Z,98652.64
2019-04-21T23:00:53.040Z,98656.11
2019-04-21T23:04:02.931Z,98655.47
2019-04-21T23:07:19.384Z,98658.03
2019-04-21T23:10:32.295Z,98658.78
2019-04-21T23:13:55.324Z,98663.50
2019-04-21T23:17:24.099Z,98657.47
2019-04-21T23:20:39.391Z,98659.53
2019-04-21T23:23:51.658Z,98657.75
2019-04-21T23:27:02.654Z,98662.08
2019-04-21T23:30:34.193Z,98658.50
2019-04-21T23:33:22.025Z,98653.14
2019-04-21T23:36:43.503Z,98656.43
2019-04-21T23:39:59.727Z,98647.74
2019-04-21T23:43:13.410Z,98646.20
2019-04-21T23:46:28.228Z,98640.56
2019-04-21T23:49:47.117Z,98635.69
2019-04-21T23:52:55.424Z,98644.56
2019-04-21T23:56:14.723Z,98644.06
2019-04-21T23:59:26.705Z,98645.81
